createdAt,value
2019-05-16T00:02:08.066Z,52.22
2019-05-16T00:05:15.918Z,52.63
2019-05-16T00:08:24.564Z,52.81
2019-05-16T00:11:33.178Z,53.21
2019-05-16T00:14:41.778Z,53.53
2019-05-16T00:17:50.538Z,53.47
2019-05-16T00:20:59.019Z,53.66
2019-05-16T00:24:08.284Z,53.54
2019-05-16T00:27:18.570Z,53.65
2019-05-16T00:30:28.850Z,54.05
2019-05-16T00:33:38.015Z,54.07
2019-05-16T00:36:48.658Z,54.04
2019-05-16T00:39:58.784Z,54.31
2019-05-16T00:43:08.049Z,54.08
2019-05-16T00:46:27.959Z,54.27
2019-05-16T00:49:38.553Z,54.22
2019-05-16T00:52:48.754Z,54.23
2019-05-16T00:55:58.491Z,54.45
2019-05-16T00:59:18.395Z,54.38
2019-05-16T01:02:28.873Z,54.58
2019-05-16T01:05:38.863Z,54.81
2019-05-16T01:08:48.818Z,55.12
2019-05-16T01:12:09.327Z,54.68
2019-05-16T01:15:18.524Z,54.72
2019-05-16T01:18:38.039Z,54.77
2019-05-16T01:21:48.334Z,54.92
2019-05-16T01:24:58.484Z,54.71
2019-05-16T01:28:17.985Z,54.94
2019-05-16T01:31:27.993Z,54.73
2019-05-16T01:34:37.768Z,54.78
2019-05-16T01:37:48.600Z,54.30
2019-05-16T01:40:58.318Z,54.39
2019-05-16T01:44:07.886Z,54.24
2019-05-16T01:47:18.281Z,54.43
2019-05-16T01:50:28.403Z,54.33
2019-05-16T01:53:39.334Z,54.36
2019-05-16T01:56:48.050Z,54.00
2019-05-16T02:00:08.458Z,54.08
2019-05-16T02:03:19.009Z,53.48
2019-05-16T02:06:28.791Z,53.59
2019-05-16T02:09:38.418Z,53.75
2019-05-16T02:12:48.996Z,54.04
2019-05-16T02:15:59.330Z,53.97
2019-05-16T02:19:18.890Z,53.55
2019-05-16T02:22:39.064Z,53.82
2019-05-16T02:25:49.059Z,53.68
2019-05-16T02:29:00.897Z,53.73
2019-05-16T02:32:22.237Z,53.68
2019-05-16T02:35:31.368Z,53.59
2019-05-16T02:38:42.322Z,53.62
2019-05-16T02:41:52.008Z,53.34
2019-05-16T02:45:02.409Z,53.67
2019-05-16T02:48:11.291Z,53.38
2019-05-16T02:51:21.265Z,53.35
2019-05-16T02:54:31.627Z,53.17
2019-05-16T02:57:41.524Z,53.29
2019-05-16T03:00:51.485Z,53.14
2019-05-16T03:04:01.693Z,52.90
2019-05-16T03:07:17.183Z,52.99
2019-05-16T03:10:31.707Z,52.89
2019-05-16T03:13:51.375Z,52.89
2019-05-16T03:17:07.846Z,53.18
2019-05-16T03:20:16.565Z,52.77
2019-05-16T03:23:25.196Z,52.65
2019-05-16T03:26:33.827Z,52.65
2019-05-16T03:29:42.474Z,52.67
2019-05-16T03:33:04.866Z,52.20
2019-05-16T03:36:14.857Z,52.28
2019-05-16T03:39:21.879Z,52.36
2019-05-16T03:42:31.168Z,52.07
2019-05-16T03:45:52.149Z,52.36
2019-05-16T03:49:02.390Z,52.47
2019-05-16T03:52:11.361Z,52.22
2019-05-16T03:55:32.513Z,52.42
2019-05-16T03:58:41.599Z,52.14
2019-05-16T04:01:51.051Z,51.86
2019-05-16T04:05:11.167Z,51.77
2019-05-16T04:08:24.427Z,51.47
2019-05-16T04:11:32.079Z,51.38
2019-05-16T04:14:41.169Z,50.76
2019-05-16T04:17:51.275Z,50.63
2019-05-16T04:21:00.998Z,50.30
2019-05-16T04:24:12.137Z,49.88
2019-05-16T04:27:21.439Z,49.61
2019-05-16T04:30:31.236Z,49.37
2019-05-16T04:33:41.547Z,48.90
2019-05-16T04:36:51.372Z,48.76
2019-05-16T04:40:01.315Z,48.78
2019-05-16T04:43:22.164Z,48.29
2019-05-16T04:46:31.593Z,47.90
2019-05-16T04:49:51.910Z,48.29
2019-05-16T04:53:01.339Z,47.89
2019-05-16T04:56:11.067Z,47.98
2019-05-16T04:59:20.837Z,48.11
2019-05-16T05:02:31.017Z,47.36
2019-05-16T05:05:41.435Z,47.37
2019-05-16T05:08:57.952Z,47.24
2019-05-16T05:12:04.283Z,47.30
2019-05-16T05:15:11.827Z,47.17
2019-05-16T05:18:21.454Z,48.42
2019-05-16T05:21:31.414Z,48.64
2019-05-16T05:24:40.715Z,48.67
2019-05-16T05:27:50.071Z,48.86
2019-05-16T05:30:59.713Z,48.51
2019-05-16T05:34:10.630Z,48.38
2019-05-16T05:37:20.416Z,48.12
2019-05-16T05:40:29.668Z,48.46
2019-05-16T05:43:39.759Z,48.36
2019-05-16T05:47:00.575Z,47.98
2019-05-16T05:50:11.178Z,48.19
2019-05-16T05:53:20.752Z,48.06
2019-05-16T05:56:30.528Z,47.79
2019-05-16T05:59:40.433Z,47.89
2019-05-16T06:03:00.130Z,47.72
2019-05-16T06:06:21.029Z,48.18
2019-05-16T06:09:33.138Z,47.95
2019-05-16T06:12:41.872Z,48.33
2019-05-16T06:15:51.513Z,47.55
2019-05-16T06:19:00.910Z,47.28
2019-05-16T06:22:10.269Z,47.91
2019-05-16T06:25:22.861Z,47.71
2019-05-16T06:28:30.787Z,47.34
2019-05-16T06:31:40.876Z,47.52
2019-05-16T06:35:00.275Z,47.84
2019-05-16T06:38:20.935Z,47.84
2019-05-16T06:41:40.227Z,46.77
2019-05-16T06:44:50.385Z,46.92
2019-05-16T06:48:00.826Z,47.38
2019-05-16T06:51:10.792Z,48.80
2019-05-16T06:54:20.765Z,48.46
2019-05-16T06:57:30.334Z,47.91
2019-05-16T07:00:40.630Z,47.42
2019-05-16T07:03:50.760Z,45.87
2019-05-16T07:07:02.802Z,46.22
2019-05-16T07:10:11.027Z,46.91
2019-05-16T07:13:30.498Z,45.89
2019-05-16T07:16:40.479Z,46.48
2019-05-16T07:20:00.751Z,46.03
2019-05-16T07:23:10.162Z,45.83
2019-05-16T07:26:34.099Z,46.92
2019-05-16T07:29:42.747Z,46.43
2019-05-16T07:32:51.361Z,45.25
2019-05-16T07:36:00.510Z,45.57
2019-05-16T07:39:10.808Z,45.37
2019-05-16T07:42:20.083Z,45.03
2019-05-16T07:45:40.671Z,45.17
2019-05-16T07:48:51.867Z,46.85
2019-05-16T07:52:00.587Z,46.87
2019-05-16T07:55:10.841Z,47.95
2019-05-16T07:58:21.724Z,49.36
2019-05-16T08:01:30.747Z,48.89
2019-05-16T08:04:40.561Z,50.20
2019-05-16T08:07:51.149Z,49.73
2019-05-16T08:11:01.486Z,50.19
2019-05-16T08:14:10.409Z,51.56
2019-05-16T08:17:21.427Z,50.05
2019-05-16T08:20:31.314Z,50.89
2019-05-16T08:23:41.233Z,52.51
2019-05-16T08:26:51.394Z,52.52
2019-05-16T08:30:02.521Z,53.65
2019-05-16T08:36:31.680Z,54.40
2019-05-16T08:39:50.981Z,55.52
2019-05-16T08:43:01.324Z,56.34
2019-05-16T08:46:23.031Z,56.42
2019-05-16T08:49:31.607Z,56.25
2019-05-16T08:52:43.625Z,56.33
2019-05-16T08:55:50.994Z,58.51
2019-05-16T08:59:02.656Z,56.60
2019-05-16T09:02:12.542Z,56.29
2019-05-16T09:05:22.693Z,56.54
2019-05-16T09:08:41.804Z,56.07
2019-05-16T09:10:41.043Z,53.88
2019-05-16T09:11:50.326Z,58.48
2019-05-16T09:15:00.423Z,59.36
2019-05-16T09:18:09.307Z,58.19
2019-05-16T09:21:18.449Z,58.85
2019-05-16T09:24:27.392Z,57.83
2019-05-16T09:27:37.830Z,58.27
2019-05-16T09:30:46.915Z,58.91
2019-05-16T09:33:56.768Z,59.30
2019-05-16T09:37:08.226Z,58.09
2019-05-16T09:40:17.294Z,57.74
2019-05-16T09:43:28.032Z,56.79
2019-05-16T09:46:37.608Z,57.63
2019-05-16T09:49:47.484Z,56.26
2019-05-16T09:52:56.835Z,55.38
2019-05-16T09:56:07.085Z,54.44
2019-05-16T09:59:17.263Z,54.54
2019-05-16T10:02:27.381Z,55.25
2019-05-16T10:05:57.964Z,53.62
2019-05-16T10:09:08.617Z,52.90
2019-05-16T10:12:18.707Z,52.34
2019-05-16T10:15:28.783Z,52.77
2019-05-16T10:18:37.553Z,52.63
2019-05-16T10:21:46.243Z,53.48
2019-05-16T10:24:53.368Z,53.47
2019-05-16T10:28:02.006Z,54.64
2019-05-16T10:31:10.935Z,54.39
2019-05-16T10:34:19.680Z,54.95
2019-05-16T10:37:28.382Z,55.01
2019-05-16T10:40:37.085Z,58.71
2019-05-16T10:43:47.512Z,61.94
2019-05-16T10:47:17.036Z,61.78
2019-05-16T10:50:27.652Z,65.15
2019-05-16T10:54:08.833Z,66.33
2019-05-16T10:57:15.276Z,68.27
2019-05-16T11:00:57.226Z,69.48
2019-05-16T11:03:37.520Z,71.40
2019-05-16T11:06:46.662Z,71.11
2019-05-16T11:10:03.235Z,72.77
2019-05-16T11:13:10.209Z,73.53
2019-05-16T11:16:19.159Z,75.81
2019-05-16T11:19:33.777Z,77.77
2019-05-16T11:22:47.698Z,78.26
2019-05-16T11:25:58.596Z,78.66
2019-05-16T11:29:08.383Z,78.43
2019-05-16T11:32:18.530Z,78.92
2019-05-16T11:35:38.292Z,79.55
2019-05-16T11:38:47.674Z,79.17
2019-05-16T11:41:57.204Z,79.09
2019-05-16T11:45:09.185Z,79.19
2019-05-16T11:48:17.582Z,79.23
2019-05-16T11:51:27.132Z,78.75
2019-05-16T11:54:37.402Z,79.57
2019-05-16T11:57:47.685Z,78.34
2019-05-16T12:00:57.560Z,77.93
2019-05-16T12:04:17.356Z,77.78
2019-05-16T12:07:33.462Z,75.55
2019-05-16T12:10:37.094Z,74.81
2019-05-16T12:13:47.590Z,75.04
2019-05-16T12:16:56.904Z,75.82
2019-05-16T12:20:20.039Z,75.59
2019-05-16T12:23:28.693Z,77.15
2019-05-16T12:26:37.423Z,78.26
2019-05-16T12:29:50.214Z,78.81
2019-05-16T12:32:58.098Z,79.10
2019-05-16T12:36:08.849Z,78.95
2019-05-16T12:39:17.573Z,79.38
2019-05-16T12:42:27.056Z,79.59
2019-05-16T12:45:38.446Z,80.11
2019-05-16T12:48:47.412Z,79.43
2019-05-16T12:52:06.872Z,79.98
2019-05-16T12:55:33.453Z,80.33
2019-05-16T12:58:42.765Z,80.69
2019-05-16T13:01:51.572Z,80.96
2019-05-16T13:05:00.928Z,80.31
2019-05-16T13:08:09.629Z,79.66
2019-05-16T13:11:18.297Z,79.05
2019-05-16T13:14:27.948Z,78.83
2019-05-16T13:17:47.494Z,79.14
2019-05-16T13:21:07.500Z,78.42
2019-05-16T13:24:18.604Z,78.19
2019-05-16T13:27:25.580Z,79.00
2019-05-16T13:30:34.310Z,78.07
2019-05-16T13:33:43.221Z,78.30
2019-05-16T13:36:52.045Z,77.85
2019-05-16T13:40:00.766Z,77.06
2019-05-16T13:43:10.442Z,75.27
2019-05-16T13:46:19.240Z,74.58
2019-05-16T13:49:27.970Z,73.06
2019-05-16T13:52:36.603Z,71.22
2019-05-16T13:55:45.620Z,68.74
2019-05-16T13:58:56.875Z,66.40
2019-05-16T14:02:04.102Z,67.32
2019-05-16T14:05:17.676Z,64.34
2019-05-16T14:08:26.849Z,63.40
2019-05-16T14:11:36.480Z,64.39
2019-05-16T14:14:47.636Z,63.00
2019-05-16T14:17:56.804Z,63.88
2019-05-16T14:21:06.940Z,63.19
2019-05-16T14:24:18.090Z,62.82
2019-05-16T14:27:26.955Z,63.27
2019-05-16T14:30:37.174Z,64.95
2019-05-16T14:33:47.401Z,63.68
2019-05-16T14:36:57.849Z,63.03
2019-05-16T14:40:07.369Z,62.91
2019-05-16T14:43:17.094Z,63.06
2019-05-16T14:46:27.390Z,62.69
2019-05-16T14:49:37.380Z,62.86
2019-05-16T14:52:47.367Z,63.80
2019-05-16T14:56:07.198Z,63.31
2019-05-16T14:59:15.940Z,63.76
2019-05-16T15:02:34.644Z,62.95
2019-05-16T15:05:43.378Z,63.19
2019-05-16T15:08:52.460Z,63.50
2019-05-16T15:12:01.086Z,63.20
2019-05-16T15:15:24.181Z,62.70
2019-05-16T15:18:21.542Z,63.61
2019-05-16T15:21:31.051Z,64.04
2019-05-16T15:24:49.866Z,63.60
2019-05-16T15:28:00.544Z,63.48
2019-05-16T15:31:08.751Z,63.75
2019-05-16T15:34:19.187Z,63.50
2019-05-16T15:37:27.806Z,63.76
2019-05-16T15:40:37.708Z,63.74
2019-05-16T15:43:46.752Z,63.74
2019-05-16T15:46:56.627Z,64.02
2019-05-16T15:50:08.050Z,64.85
2019-05-16T15:53:17.659Z,66.62
2019-05-16T15:56:27.208Z,68.00
2019-05-16T15:59:37.538Z,69.97
2019-05-16T16:02:48.239Z,72.01
2019-05-16T16:05:56.491Z,73.94
2019-05-16T16:09:06.947Z,74.81
2019-05-16T16:12:16.976Z,75.22
2019-05-16T16:15:24.411Z,75.97
2019-05-16T16:18:32.972Z,76.17
2019-05-16T16:21:41.586Z,75.73
2019-05-16T16:25:00.443Z,76.94
2019-05-16T16:28:10.410Z,77.17
2019-05-16T16:31:19.107Z,77.67
2019-05-16T16:34:27.667Z,77.77
2019-05-16T16:37:37.822Z,78.03
2019-05-16T16:40:48.022Z,77.91
2019-05-16T16:44:07.656Z,78.01
2019-05-16T16:47:17.597Z,78.36
2019-05-16T16:50:37.183Z,78.45
2019-05-16T16:53:46.816Z,78.00
2019-05-16T16:56:55.734Z,79.59
2019-05-16T17:00:04.352Z,79.61
2019-05-16T17:03:12.884Z,79.81
2019-05-16T17:06:21.508Z,80.01
2019-05-16T17:09:30.237Z,80.57
2019-05-16T17:12:42.547Z,80.35
2019-05-16T17:15:49.166Z,80.92
2019-05-16T17:19:08.026Z,81.32
2019-05-16T17:22:20.776Z,81.36
2019-05-16T17:25:28.494Z,81.63
2019-05-16T17:28:37.653Z,82.39
2019-05-16T17:31:54.073Z,82.69
2019-05-16T17:34:56.626Z,82.41
2019-05-16T17:38:06.789Z,82.61
2019-05-16T17:41:16.801Z,82.32
2019-05-16T17:44:27.169Z,82.40
2019-05-16T17:47:37.052Z,82.83
2019-05-16T17:50:56.997Z,82.89
2019-05-16T17:54:06.587Z,82.90
2019-05-16T17:57:27.523Z,83.98
2019-05-16T18:00:36.239Z,83.86
2019-05-16T18:03:44.945Z,84.81
2019-05-16T18:06:53.567Z,85.18
2019-05-16T18:10:02.224Z,84.72
2019-05-16T18:13:10.847Z,84.70
2019-05-16T18:16:19.494Z,84.78
2019-05-16T18:19:28.111Z,84.85
2019-05-16T18:22:36.842Z,85.37
2019-05-16T18:25:46.982Z,85.88
2019-05-16T18:29:06.852Z,85.57
2019-05-16T18:32:17.045Z,85.47
2019-05-16T18:35:27.164Z,85.58
2019-05-16T18:38:46.653Z,85.86
2019-05-16T18:41:56.551Z,85.74
2019-05-16T18:45:07.319Z,84.74
2019-05-16T18:48:27.243Z,84.57
2019-05-16T18:51:36.974Z,85.00
2019-05-16T18:54:57.602Z,84.25
2019-05-16T18:58:08.678Z,85.01
2019-05-16T19:01:17.544Z,85.00
2019-05-16T19:04:26.986Z,84.78
2019-05-16T19:07:37.004Z,83.97
2019-05-16T19:10:47.319Z,84.17
2019-05-16T19:13:56.785Z,84.02
2019-05-16T19:17:20.717Z,84.43
2019-05-16T19:20:18.678Z,84.05
2019-05-16T19:23:27.197Z,84.41
2019-05-16T19:26:37.235Z,84.44
2019-05-16T19:29:46.181Z,84.16
2019-05-16T19:32:57.360Z,84.08
2019-05-16T19:36:16.557Z,84.12
2019-05-16T19:39:26.014Z,84.17
2019-05-16T19:42:36.805Z,83.55
2019-05-16T19:45:46.564Z,83.23
2019-05-16T19:49:06.472Z,84.51
2019-05-16T19:52:16.386Z,84.76
2019-05-16T19:55:36.537Z,84.32
2019-05-16T19:58:46.759Z,84.12
2019-05-16T20:01:56.957Z,85.25
2019-05-16T20:05:06.431Z,84.87
2019-05-16T20:08:17.355Z,85.46
2019-05-16T20:11:27.487Z,85.55
2019-05-16T20:14:36.648Z,86.18
2019-05-16T20:17:58.653Z,85.91
2019-05-16T20:21:05.710Z,86.21
2019-05-16T20:24:16.574Z,86.58
2019-05-16T20:27:27.223Z,87.32
2019-05-16T20:30:37.149Z,87.11
2019-05-16T20:33:46.885Z,87.19
2019-05-16T20:36:57.192Z,87.42
2019-05-16T20:40:08.490Z,87.52
2019-05-16T20:43:16.844Z,87.97
2019-05-16T20:46:26.753Z,87.65
2019-05-16T20:49:37.355Z,87.53
2019-05-16T20:52:46.631Z,87.72
2019-05-16T20:55:57.328Z,87.87
2019-05-16T20:59:20.890Z,87.95
2019-05-16T21:02:29.429Z,87.62
2019-05-16T21:05:38.533Z,87.73
2019-05-16T21:08:49.688Z,87.75
2019-05-16T21:11:57.542Z,87.79
2019-05-16T21:15:06.707Z,87.66
2019-05-16T21:18:16.668Z,87.62
2019-05-16T21:21:27.408Z,87.69
2019-05-16T21:24:37.302Z,87.33
2019-05-16T21:27:46.525Z,87.29
2019-05-16T21:30:56.842Z,87.43
2019-05-16T21:34:07.144Z,87.50
2019-05-16T21:37:17.972Z,87.40
2019-05-16T21:40:26.841Z,87.35
2019-05-16T21:43:37.492Z,87.29
2019-05-16T21:46:46.932Z,87.47
2019-05-16T21:49:56.817Z,87.40
2019-05-16T21:53:07.319Z,87.26
2019-05-16T21:56:17.641Z,86.93
2019-05-16T21:59:28.768Z,86.88
2019-05-16T22:02:47.028Z,87.17
2019-05-16T22:05:57.592Z,86.99
2019-05-16T22:09:08.017Z,87.05
2019-05-16T22:12:26.997Z,86.78
2019-05-16T22:15:36.723Z,86.73
2019-05-16T22:18:47.355Z,86.88
2019-05-16T22:21:56.432Z,87.14
2019-05-16T22:25:07.476Z,86.94
2019-05-16T22:28:17.199Z,86.84
2019-05-16T22:31:26.949Z,86.91
2019-05-16T22:34:36.910Z,86.82
2019-05-16T22:37:59.246Z,87.23
2019-05-16T22:41:07.342Z,87.18
2019-05-16T22:44:17.683Z,87.11
2019-05-16T22:47:26.699Z,87.20
2019-05-16T22:50:36.501Z,87.08
2019-05-16T22:53:45.394Z,87.11
2019-05-16T22:56:54.209Z,87.04
2019-05-16T23:00:02.987Z,87.32
2019-05-16T23:03:13.632Z,87.17
2019-05-16T23:06:22.208Z,86.79
2019-05-16T23:09:30.943Z,86.05
2019-05-16T23:12:39.697Z,85.99
2019-05-16T23:15:48.310Z,86.20
2019-05-16T23:19:07.204Z,86.17
2019-05-16T23:22:16.720Z,86.29
2019-05-16T23:25:25.448Z,86.17
2019-05-16T23:28:36.566Z,85.90
2019-05-16T23:31:47.013Z,85.81
2019-05-16T23:34:57.103Z,85.59
2019-05-16T23:38:16.436Z,84.82
2019-05-16T23:41:17.254Z,85.00
2019-05-16T23:44:26.389Z,84.57
2019-05-16T23:47:36.576Z,84.35
2019-05-16T23:50:47.373Z,84.20
2019-05-16T23:53:57.018Z,84.64
2019-05-16T23:57:16.161Z,84.43
